Time;durP1;ratioP1;P1;durP2;ratioP2;P2;SDS_P1;SDS_P2;PMS_P1;PMS_P2;Temp;Humidity;BMP_temperature;BMP_pressure;BME280_temperature;BME280_humidity;BME280_pressure;Samples;Min_cycle;Max_cycle;Signal;HPM_P1;HPM_P2
2021/01/15 00:00:10;;;;;;;26.68;16.15;;;;;;;-7.26;81.15;99029.06;1743180;82;21584;-65
2021/01/15 00:02:39;;;;;;;29.95;15.90;;;;;;;-7.27;81.11;99035.38;1743268;81;20938;-64
2021/01/15 00:05:08;;;;;;;33.33;16.20;;;;;;;-7.28;81.11;99033.70;1743230;82;22098;-67
2021/01/15 00:07:37;;;;;;;32.90;17.05;;;;;;;-7.29;81.06;99040.44;1743218;82;20946;-67
2021/01/15 00:10:07;;;;;;;32.93;17.37;;;;;;;-7.31;80.94;99046.34;1743123;82;20946;-66
2021/01/15 00:12:37;;;;;;;29.75;16.67;;;;;;;-7.33;81.03;99039.17;1743170;82;20907;-67
2021/01/15 00:15:07;;;;;;;30.20;14.93;;;;;;;-7.33;81.04;99033.70;1713007;82;21537;-64
2021/01/15 00:17:36;;;;;;;30.35;16.65;;;;;;;-7.34;80.90;99040.02;1743299;82;22011;-67
2021/01/15 00:20:06;;;;;;;29.40;15.80;;;;;;;-7.40;80.86;99039.59;1743137;81;21507;-67
2021/01/15 00:22:34;;;;;;;34.23;17.55;;;;;;;-7.44;80.94;99034.95;1743204;82;21495;-67
2021/01/15 00:25:04;;;;;;;31.60;16.05;;;;;;;-7.45;80.95;99040.02;1743187;82;21578;-64
2021/01/15 00:27:38;;;;;;;35.63;18.35;;;;;;;-7.47;80.90;99045.49;1743206;82;20998;-66
2021/01/15 00:30:12;;;;;;;30.40;13.93;;;;;;;-7.50;80.98;99041.70;1713327;82;22536;-67
2021/01/15 00:32:38;;;;;;;26.75;16.00;;;;;;;-7.50;80.99;99045.48;1742693;82;21619;-68
2021/01/15 00:35:08;;;;;;;27.25;15.43;;;;;;;-7.52;80.92;99054.34;1743213;82;20943;-68
2021/01/15 00:37:39;;;;;;;30.12;17.02;;;;;;;-7.55;80.91;99053.07;1743232;82;20942;-67
2021/01/15 00:40:09;;;;;;;38.10;17.02;;;;;;;-7.57;81.05;99058.96;1743421;82;21512;-67
2021/01/15 00:42:38;;;;;;;62.25;29.27;;;;;;;-7.55;81.22;99064.45;1743386;82;21355;-68
2021/01/15 00:45:09;;;;;;;106.92;45.30;;;;;;;-7.55;81.16;99061.92;1743310;82;21025;-68
2021/01/15 00:47:38;;;;;;;85.55;40.50;;;;;;;-7.53;81.16;99066.97;1743451;82;21456;-68
2021/01/15 00:50:08;;;;;;;61.20;29.92;;;;;;;-7.55;81.21;99061.92;1743342;81;21591;-64
2021/01/15 00:52:36;;;;;;;40.88;21.95;;;;;;;-7.52;81.34;99065.71;1743410;81;20934;-66
2021/01/15 00:55:06;;;;;;;46.42;25.55;;;;;;;-7.48;81.36;99065.30;1743332;82;22176;-68
2021/01/15 00:57:38;;;;;;;60.58;36.00;;;;;;;-7.46;81.45;99066.98;1743276;82;21084;-68
2021/01/15 01:00:08;;;;;;;37.83;21.73;;;;;;;-7.40;81.52;99077.10;1743367;82;21425;-65
2021/01/15 01:02:38;;;;;;;35.43;18.73;;;;;;;-7.36;81.57;99072.05;1741973;82;20946;-64
2021/01/15 01:05:11;;;;;;;46.33;24.98;;;;;;;-7.31;81.62;99079.22;1743346;82;21598;-65
2021/01/15 01:07:43;;;;;;;61.92;38.02;;;;;;;-7.27;81.52;99077.11;1743376;82;22143;-64
2021/01/15 01:10:11;;;;;;;40.67;23.47;;;;;;;-7.23;81.38;99090.19;1743240;82;21606;-64
2021/01/15 01:12:41;;;;;;;32.42;19.52;;;;;;;-7.21;81.16;99084.70;1743446;82;21500;-65
2021/01/15 01:15:12;;;;;;;32.33;17.73;;;;;;;-7.21;80.87;99079.64;1743308;82;21618;-65
2021/01/15 01:17:42;;;;;;;34.80;17.77;;;;;;;-7.22;80.70;99077.95;1743262;82;20986;-64
2021/01/15 01:20:12;;;;;;;26.35;16.25;;;;;;;-7.26;80.69;99069.95;1743297;81;22173;-65
2021/01/15 01:22:49;;;;;;;31.23;15.28;;;;;;;-7.25;80.75;99071.63;1743364;82;21606;-66
2021/01/15 01:25:12;;;;;;;23.18;14.85;;;;;;;-7.28;80.65;99069.10;1742779;82;21582;-65
2021/01/15 01:27:40;;;;;;;25.25;13.85;;;;;;;-7.28;80.68;99067.42;1743366;82;21163;-64
2021/01/15 01:30:10;;;;;;;24.85;15.10;;;;;;;-7.26;80.62;99066.16;1743340;82;21500;-65
2021/01/15 01:32:39;;;;;;;27.80;15.55;;;;;;;-7.27;80.50;99074.16;1743375;81;22066;-65
2021/01/15 01:35:10;;;;;;;22.40;14.30;;;;;;;-7.28;80.55;99080.06;1743241;82;20970;-64
2021/01/15 01:37:38;;;;;;;24.95;15.72;;;;;;;-7.28;80.44;99075.42;1743398;81;21492;-65
2021/01/15 01:40:10;;;;;;;23.95;14.98;;;;;;;-7.31;80.37;99071.63;1743324;82;21512;-65
2021/01/15 01:42:39;;;;;;;25.97;15.32;;;;;;;-7.34;80.47;99076.27;1743368;82;20961;-65
2021/01/15 01:45:10;;;;;;;22.75;14.35;;;;;;;-7.35;80.50;99070.78;1743297;82;22322;-65
2021/01/15 01:47:38;;;;;;;31.10;16.97;;;;;;;-7.35;80.43;99072.05;1743226;81;20914;-63
2021/01/15 01:50:09;;;;;;;36.10;20.23;;;;;;;-7.36;80.31;99073.31;1743326;82;21638;-64
2021/01/15 01:52:37;;;;;;;35.73;20.40;;;;;;;-7.40;80.28;99077.10;1743332;81;20934;-62
2021/01/15 01:55:06;;;;;;;30.00;15.55;;;;;;;-7.41;80.30;99074.58;1712807;82;21606;-63
2021/01/15 01:57:36;;;;;;;24.80;14.05;;;;;;;-7.43;80.25;99082.16;1743275;82;21908;-63
2021/01/15 02:00:06;;;;;;;25.17;14.60;;;;;;;-7.41;80.50;99083.42;1743205;82;21456;-63
2021/01/15 02:02:37;;;;;;;25.97;13.93;;;;;;;-7.38;80.42;99076.27;1743158;81;21524;-63
2021/01/15 02:05:06;;;;;;;24.52;14.50;;;;;;;-7.33;80.29;99089.75;1743303;82;21401;-63
2021/01/15 02:07:35;;;;;;;23.27;14.75;;;;;;;-7.33;80.13;99089.33;1743321;82;20935;-64
2021/01/15 02:10:14;;;;;;;26.62;15.30;;;;;;;-7.33;80.06;99086.80;1743220;82;22081;-63
2021/01/15 02:13:00;;;;;;;28.87;15.23;;;;;;;-7.30;80.15;99091.02;1736432;82;21520;-63
2021/01/15 02:15:40;;;;;;;24.27;13.98;;;;;;;-7.27;80.01;99096.08;1735151;82;21070;-64
2021/01/15 02:18:18;;;;;;;29.95;14.73;;;;;;;-7.26;79.84;99097.77;1734954;82;21512;-67
2021/01/15 02:21:21;;;;;;;25.80;14.63;;;;;;;-7.28;79.68;99095.23;1719178;82;21520;-66
2021/01/15 02:23:50;;;;;;;27.52;14.73;;;;;;;-7.31;79.71;99091.44;1735107;82;22138;-68
2021/01/15 02:26:47;;;;;;;23.92;13.55;;;;;;;-7.31;79.69;99090.59;1735070;82;21477;-68
2021/01/15 02:29:18;;;;;;;28.65;14.87;;;;;;;-7.33;79.55;99095.66;1735129;82;21508;-68
2021/01/15 02:32:08;;;;;;;25.43;12.88;;;;;;;-7.34;79.67;99096.50;1735099;82;20983;-68
2021/01/15 02:34:57;;;;;;;27.87;14.70;;;;;;;-7.35;79.49;99097.76;1735231;82;21485;-65
2021/01/15 02:37:43;;;;;;;24.05;13.53;;;;;;;-7.40;79.41;99096.48;1735135;82;21422;-68
2021/01/15 02:40:23;;;;;;;30.27;16.17;;;;;;;-7.45;79.49;99090.16;1735140;82;21441;-66
2021/01/15 02:42:52;;;;;;;25.17;15.03;;;;;;;-7.46;79.74;99092.69;1735155;82;21579;-64
2021/01/15 02:45:20;;;;;;;24.80;14.28;;;;;;;-7.46;79.83;99096.06;1735099;82;21591;-64
2021/01/15 02:47:50;;;;;;;25.62;15.95;;;;;;;-7.44;79.67;99102.38;1735084;82;21513;-66
2021/01/15 02:50:21;;;;;;;26.20;15.68;;;;;;;-7.47;79.59;99096.90;1735234;82;22061;-67
2021/01/15 02:52:50;;;;;;;25.15;13.13;;;;;;;-7.50;79.45;99103.22;1735064;82;21081;-66
2021/01/15 02:55:18;;;;;;;24.05;15.20;;;;;;;-7.52;79.38;99108.69;1735222;82;21512;-67
2021/01/15 02:57:47;;;;;;;27.62;15.88;;;;;;;-7.57;79.37;99104.05;1734989;82;21504;-68
2021/01/15 03:00:19;;;;;;;31.40;15.55;;;;;;;-7.59;79.52;99109.52;1735074;82;21504;-64
2021/01/15 03:03:07;;;;;;;29.35;15.90;;;;;;;-7.58;79.66;99111.20;1735118;82;21197;-66
2021/01/15 03:05:51;;;;;;;28.62;14.07;;;;;;;-7.58;79.50;99107.41;1735184;82;21520;-63
2021/01/15 03:08:21;;;;;;;24.23;14.18;;;;;;;-7.57;79.61;99117.10;1735123;82;21317;-64
2021/01/15 03:10:49;;;;;;;24.55;14.13;;;;;;;-7.56;79.82;99113.31;1736445;82;21025;-64
2021/01/15 03:13:17;;;;;;;27.27;14.33;;;;;;;-7.56;79.46;99115.84;1743349;82;21578;-63
2021/01/15 03:15:47;;;;;;;22.20;13.15;;;;;;;-7.57;79.11;99126.80;1743215;81;21193;-64
2021/01/15 03:18:16;;;;;;;22.95;13.88;;;;;;;-7.64;79.00;99117.55;1743157;82;21485;-66
2021/01/15 03:20:45;;;;;;;27.30;14.75;;;;;;;-7.69;79.20;99119.21;1712754;82;21480;-64
2021/01/15 03:23:13;;;;;;;28.67;14.58;;;;;;;-7.69;79.36;99124.69;1743153;81;21460;-64
2021/01/15 03:25:42;;;;;;;26.73;14.93;;;;;;;-7.70;79.51;99124.27;1743238;82;21559;-65
2021/01/15 03:28:10;;;;;;;28.00;14.70;;;;;;;-7.69;79.42;99128.05;1743260;82;22238;-64
2021/01/15 03:30:39;;;;;;;26.93;14.15;;;;;;;-7.68;79.36;99131.42;1743153;82;21010;-63
2021/01/15 03:33:08;;;;;;;32.08;15.55;;;;;;;-7.69;79.16;99125.95;1743234;82;21516;-64
2021/01/15 03:35:36;;;;;;;26.00;15.03;;;;;;;-7.74;79.15;99124.25;1743148;82;21499;-64
2021/01/15 03:38:08;;;;;;;26.45;15.32;;;;;;;-7.74;79.20;99123.41;1743230;82;21342;-65
2021/01/15 03:40:40;;;;;;;27.07;15.30;;;;;;;-7.74;79.18;99124.25;1743241;82;22235;-64
2021/01/15 03:43:20;;;;;;;25.27;15.32;;;;;;;-7.74;79.12;99128.47;1743418;82;21528;-67
2021/01/15 03:45:49;;;;;;;23.50;15.23;;;;;;;-7.75;79.23;99130.14;1743254;82;20943;-67
2021/01/15 03:48:18;;;;;;;28.17;15.63;;;;;;;-7.71;79.41;99135.20;1743444;81;21017;-66
2021/01/15 03:50:47;;;;;;;26.60;14.53;;;;;;;-7.69;79.30;99142.38;1743333;82;21488;-64
2021/01/15 03:53:16;;;;;;;22.45;13.90;;;;;;;-7.68;79.31;99134.80;1743228;82;22156;-64
2021/01/15 03:55:44;;;;;;;32.80;16.32;;;;;;;-7.67;79.11;99140.28;1743132;82;21583;-64
2021/01/15 03:58:13;;;;;;;26.00;16.30;;;;;;;-7.67;79.00;99137.75;1743168;82;21591;-64
2021/01/15 04:00:42;;;;;;;32.78;16.48;;;;;;;-7.67;78.94;99139.44;1743128;82;21599;-64
2021/01/15 04:03:11;;;;;;;27.98;15.65;;;;;;;-7.69;79.52;99134.80;1743265;81;21595;-64
2021/01/15 04:05:42;;;;;;;28.45;14.85;;;;;;;-7.65;80.25;99125.97;1743220;82;21189;-64
2021/01/15 04:08:12;;;;;;;25.02;14.58;;;;;;;-7.58;80.29;99130.58;1743151;82;21009;-64
2021/01/15 04:10:40;;;;;;;29.45;15.08;;;;;;;-7.53;80.16;99124.70;1743241;82;21670;-64
2021/01/15 04:13:09;;;;;;;24.23;14.53;;;;;;;-7.50;79.44;99129.77;1743304;82;21516;-64
2021/01/15 04:15:37;;;;;;;25.43;14.87;;;;;;;-7.51;79.17;99130.60;1743401;82;21512;-64
2021/01/15 04:18:06;;;;;;;29.52;15.28;;;;;;;-7.51;78.79;99138.19;1743348;82;22163;-63
2021/01/15 04:20:35;;;;;;;26.20;13.83;;;;;;;-7.54;78.67;99133.54;1743349;81;21334;-66
2021/01/15 04:23:04;;;;;;;28.02;15.03;;;;;;;-7.55;78.72;99131.44;1743389;82;21579;-65
2021/01/15 04:25:32;;;;;;;25.95;14.55;;;;;;;-7.56;78.54;99136.06;1743280;81;21563;-63
2021/01/15 04:28:02;;;;;;;25.70;14.38;;;;;;;-7.59;78.56;99138.59;1743369;82;21618;-63
2021/01/15 04:30:31;;;;;;;27.90;15.65;;;;;;;-7.61;78.59;99141.56;1743386;82;21567;-63
2021/01/15 04:32:59;;;;;;;31.10;15.75;;;;;;;-7.64;78.55;99145.77;1743308;82;20970;-63
2021/01/15 04:35:28;;;;;;;29.98;15.20;;;;;;;-7.65;78.56;99144.08;1743362;82;21512;-66
2021/01/15 04:37:56;;;;;;;32.08;15.88;;;;;;;-7.67;78.56;99140.28;1743306;82;21377;-67
2021/01/15 04:40:25;;;;;;;24.77;15.10;;;;;;;-7.69;78.38;99143.22;1743347;82;21488;-67
2021/01/15 04:42:55;;;;;;;26.97;14.60;;;;;;;-7.70;78.42;99140.69;1743384;82;22157;-67
2021/01/15 04:45:24;;;;;;;27.87;15.88;;;;;;;-7.69;78.61;99151.22;1743299;82;21013;-64
2021/01/15 04:47:53;;;;;;;26.75;14.98;;;;;;;-7.68;78.55;99156.70;1743375;82;21030;-66
2021/01/15 04:50:22;;;;;;;23.83;13.75;;;;;;;-7.68;78.51;99151.65;1743322;82;21551;-64
2021/01/15 04:52:52;;;;;;;27.73;15.40;;;;;;;-7.67;78.16;99160.92;1743356;81;21614;-64
2021/01/15 04:55:24;;;;;;;27.73;15.50;;;;;;;-7.72;77.93;99160.91;1743330;81;22291;-64
2021/01/15 04:57:55;;;;;;;24.07;15.13;;;;;;;-7.77;78.07;99161.30;1743355;81;21061;-63
2021/01/15 05:00:25;;;;;;;28.55;15.30;;;;;;;-7.81;78.33;99170.55;1743354;82;20962;-64
2021/01/15 05:02:54;;;;;;;23.85;13.70;;;;;;;-7.80;79.22;99176.03;1743318;82;21384;-64
2021/01/15 05:05:26;;;;;;;28.55;15.48;;;;;;;-7.71;79.30;99176.91;1743452;82;21389;-67
2021/01/15 05:08:16;;;;;;;27.67;16.12;;;;;;;-7.68;78.62;99184.50;1743441;82;22076;-67
2021/01/15 05:10:47;;;;;;;25.48;15.72;;;;;;;-7.68;78.24;99183.23;1712564;82;21488;-67
2021/01/15 05:13:16;;;;;;;28.02;17.35;;;;;;;-7.69;78.11;99186.61;1743239;80;21452;-66
2021/01/15 05:15:48;;;;;;;36.03;18.82;;;;;;;-7.68;78.03;99184.50;1743304;82;20926;-66
2021/01/15 05:18:19;;;;;;;32.23;17.98;;;;;;;-7.68;77.86;99190.41;1743353;81;20911;-65
2021/01/15 05:20:48;;;;;;;33.67;19.15;;;;;;;-7.66;78.26;99181.56;1743328;81;21373;-64
2021/01/15 05:23:19;;;;;;;32.60;18.30;;;;;;;-7.65;78.50;99187.05;1743248;82;20963;-65
2021/01/15 05:25:48;;;;;;;31.95;16.82;;;;;;;-7.63;78.61;99186.63;1743293;82;21631;-64
2021/01/15 05:28:18;;;;;;;27.27;17.45;;;;;;;-7.58;78.86;99195.88;1743337;82;21484;-64
2021/01/15 05:30:58;;;;;;;30.20;17.67;;;;;;;-7.53;78.50;99192.95;1743448;82;21329;-64
2021/01/15 05:33:28;;;;;;;25.60;16.30;;;;;;;-7.51;78.12;99201.39;1743397;82;22185;-62
2021/01/15 05:35:56;;;;;;;23.42;14.78;;;;;;;-7.52;77.81;99206.02;1743260;82;21492;-65
2021/01/15 05:38:24;;;;;;;25.23;15.53;;;;;;;-7.53;77.55;99201.80;1743287;81;21551;-67
2021/01/15 05:40:58;;;;;;;26.33;15.63;;;;;;;-7.55;77.50;99208.53;1711834;82;21448;-67
2021/01/15 05:43:32;;;;;;;24.40;15.20;;;;;;;-7.58;77.34;99207.27;1743413;82;21460;-67
2021/01/15 05:46:17;;;;;;;26.65;15.90;;;;;;;-7.60;77.50;99214.02;1743303;81;21180;-66
2021/01/15 05:48:51;;;;;;;23.42;13.93;;;;;;;-7.60;77.88;99211.92;1743266;81;21533;-66
2021/01/15 05:51:31;;;;;;;22.22;13.78;;;;;;;-7.59;77.73;99219.47;1735661;82;21658;-65
2021/01/15 05:54:01;;;;;;;22.13;13.43;;;;;;;-7.60;77.55;99222.87;1688226;82;20954;-67
2021/01/15 05:56:42;;;;;;;26.65;15.08;;;;;;;-7.58;78.78;99221.16;1696691;82;21499;-64
2021/01/15 05:59:16;;;;;;;24.30;13.85;;;;;;;-7.48;79.42;99229.20;1677102;82;21389;-64
2021/01/15 06:01:51;;;;;;;25.62;14.35;;;;;;;-7.36;79.47;99225.03;1701330;84;21603;-65
2021/01/15 06:04:38;;;;;;;24.40;14.83;;;;;;;-7.28;78.84;99236.86;1701089;82;21603;-65
2021/01/15 06:07:12;;;;;;;;;;;;;;;-7.28;77.98;99230.96;1724199;82;21051;-65
2021/01/15 06:09:41;;;;;;;25.48;14.68;;;;;;;-7.31;77.36;99231.80;1744534;82;20200;-68
2021/01/15 06:12:18;;;;;;;22.60;14.18;;;;;;;-7.36;77.00;99252.43;1701329;83;22295;-67
2021/01/15 06:14:56;;;;;;;26.35;14.58;;;;;;;-7.45;76.74;99259.98;1738140;82;20985;-71
2021/01/15 06:17:22;;;;;;;23.65;13.55;;;;;;;-7.51;76.78;99268.38;1715242;83;21153;-71
2021/01/15 06:19:56;;;;;;;21.48;14.07;;;;;;;-7.55;76.90;99272.16;1724526;82;21678;-66
2021/01/15 06:22:49;;;;;;;20.35;12.30;;;;;;;-7.57;77.00;99270.03;1726545;83;21063;-69
2021/01/15 06:25:31;;;;;;;20.40;12.58;;;;;;;-7.57;77.06;99270.03;1703302;83;21200;-66
2021/01/15 06:28:02;;;;;;;17.23;11.25;;;;;;;-7.60;76.83;99279.75;1702611;82;21504;-68
2021/01/15 06:30:32;;;;;;;20.97;12.78;;;;;;;-7.64;76.83;99283.09;1754028;80;21068;-70
2021/01/15 06:33:14;;;;;;;20.20;12.28;;;;;;;-7.67;76.78;99280.55;1778188;78;20945;-67
2021/01/15 06:35:44;;;;;;;20.82;13.08;;;;;;;-7.67;76.73;99287.30;1769583;80;21040;-66
2021/01/15 06:38:19;;;;;;;21.07;12.80;;;;;;;-7.71;76.46;99288.95;1777390;80;21348;-65
2021/01/15 06:40:50;;;;;;;23.15;12.33;;;;;;;-7.73;76.28;99291.89;1704184;84;21058;-66
2021/01/15 06:43:33;;;;;;;20.45;13.22;;;;;;;-7.72;76.38;99295.27;1722580;83;21066;-67
2021/01/15 06:46:04;;;;;;;19.82;12.07;;;;;;;-7.71;76.08;99299.48;1709025;81;20975;-68
2021/01/15 06:48:36;;;;;;;20.92;12.85;;;;;;;-7.72;76.31;99297.38;1704825;82;21133;-67
2021/01/15 06:51:06;;;;;;;22.85;14.10;;;;;;;-7.75;75.65;99306.20;1714031;81;21351;-66
2021/01/15 06:53:38;;;;;;;21.80;13.25;;;;;;;-7.79;75.22;99308.28;1713782;82;21111;-67
2021/01/15 06:56:08;;;;;;;26.00;14.60;;;;;;;-7.85;74.87;99311.61;1723284;82;21185;-68
2021/01/15 06:58:40;;;;;;;29.85;16.52;;;;;;;-7.89;74.50;99312.84;1713343;82;21615;-70
2021/01/15 07:01:27;;;;;;;24.75;14.38;;;;;;;-7.92;74.45;99315.35;1711011;81;20956;-67
2021/01/15 07:04:28;;;;;;;27.30;14.57;;;;;;;-7.92;73.93;99311.14;1874232;76;25993;-68
2021/01/15 07:07:14;;;;;;;25.10;13.80;;;;;;;-7.98;73.80;99315.31;1795790;77;21052;-67
2021/01/15 07:09:45;;;;;;;28.38;15.93;;;;;;;-8.05;73.41;99322.45;1785267;80;22143;-66
2021/01/15 07:12:17;;;;;;;27.17;15.23;;;;;;;-8.12;73.32;99328.72;1785059;80;21024;-68
2021/01/15 07:14:58;;;;;;;30.48;16.67;;;;;;;-8.19;73.17;99323.19;1784814;77;21662;-65
2021/01/15 07:17:37;;;;;;;32.50;18.45;;;;;;;-8.25;72.91;99326.08;1785106;80;20993;-67
2021/01/15 07:20:18;;;;;;;37.00;17.32;;;;;;;-8.33;72.51;99326.05;1807867;77;21643;-66
2021/01/15 07:22:52;;;;;;;27.62;14.73;;;;;;;-8.44;72.35;99327.24;1754879;81;21204;-66
2021/01/15 07:25:21;;;;;;;25.57;15.03;;;;;;;-8.50;72.12;99332.66;1765296;80;21723;-66
2021/01/15 07:27:49;;;;;;;;;;;;;;;-8.56;72.10;99340.16;1774200;79;21064;-66
2021/01/15 07:30:29;;;;;;;;;;;;;;;-8.63;72.01;99342.20;1739427;80;20175;-70
2021/01/15 07:32:58;;;;;;;;;;;;;;;-8.70;71.96;99337.92;1731496;80;20214;-66
2021/01/15 07:35:29;;;;;;;;;;;;;;;-8.79;71.67;99344.98;1743401;80;21256;-68
2021/01/15 07:38:12;;;;;;;;;;;;;;;-8.85;71.42;99343.68;1820477;77;20180;-66
2021/01/15 07:40:41;;;;;;;;;;;;;;;-8.90;71.34;99339.84;1821611;77;20176;-67
2021/01/15 07:43:30;;;;;;;;;;;;;;;-8.94;71.13;99341.91;1834578;77;20153;-65
2021/01/15 07:45:58;;;;;;;;;;;;;;;-8.97;71.23;99341.02;1810987;77;20306;-69
2021/01/15 07:48:27;;;;;;;;;;;;;;;-9.03;71.18;99341.80;1820134;77;21194;-65
2021/01/15 07:50:54;;;;;;;;;;;;;;;-9.07;71.01;99336.28;1826247;77;20578;-65
2021/01/15 07:53:26;;;;;;;;;;;;;;;-9.09;71.15;99335.42;1816211;79;20607;-65
2021/01/15 07:55:57;;;;;;;;;;;;;;;-9.07;71.64;99340.07;1812170;79;20687;-71
2021/01/15 07:58:38;;;;;;;;;;;;;;;-9.02;71.11;99337.60;1784870;80;20155;-72
2021/01/15 08:01:12;;;;;;;;;;;;;;;-8.94;71.41;99342.31;1784292;77;22054;-69
2021/01/15 08:03:42;;;;;;;;;;;;;;;-8.90;70.43;99346.16;1800630;78;20184;-68
2021/01/15 08:06:10;;;;;;;;;;;;;;;-8.89;69.89;99348.27;1815082;77;20180;-70
2021/01/15 08:09:02;;;;;;;;;;;;;;;-8.85;70.13;99350.84;1823369;77;20338;-68
2021/01/15 08:11:31;;;;;;;;;;;;;;;-8.76;69.92;99338.28;1801819;78;20119;-69
2021/01/15 08:14:20;;;;;;;;;;;;;;;-8.69;69.63;99345.92;1793634;80;21198;-68
2021/01/15 08:16:49;;;;;;;;;;;;;;;-8.66;69.25;99343.42;1797904;78;21772;-63
2021/01/15 08:19:19;;;;;;;;;;;;;;;-8.60;69.54;99343.49;1826123;78;20130;-67
2021/01/15 08:21:48;;;;;;;;;;;;;;;-8.52;69.42;99338.95;1826088;78;20172;-65
2021/01/15 08:24:18;;;;;;;;;;;;;;;-8.48;69.17;99341.93;1825178;78;20946;-65
2021/01/15 08:26:56;;;;;;;;;;;;;;;-8.44;69.02;99348.70;1825825;78;21178;-64
2021/01/15 08:29:29;;;;;;;26.80;16.02;;;;;;;-8.38;68.89;99351.67;1824179;78;20117;-65
2021/01/15 08:31:59;;;;;;;24.00;13.68;;;;;;;-8.27;69.12;99350.47;1822309;78;21052;-64
2021/01/15 08:34:33;;;;;;;27.48;16.17;;;;;;;-8.17;69.40;99357.30;1821808;78;21585;-65
2021/01/15 08:37:03;;;;;;;24.40;13.18;;;;;;;-8.05;70.04;99356.55;1762345;81;21076;-68
2021/01/15 08:39:54;;;;;;;25.25;15.18;;;;;;;-7.98;68.77;99358.25;1819732;77;22107;-64
2021/01/15 08:42:23;;;;;;;24.10;15.23;;;;;;;-7.97;68.25;99358.69;1790484;80;20921;-65
2021/01/15 08:44:51;;;;;;;22.80;14.40;;;;;;;-7.95;68.14;99360.81;1812041;78;21457;-68
2021/01/15 08:47:21;;;;;;;25.60;14.58;;;;;;;-7.92;68.05;99354.09;1793564;78;21556;-67
2021/01/15 08:49:55;;;;;;;22.87;14.63;;;;;;;-7.89;68.74;99360.85;1813140;79;21715;-68
2021/01/15 08:52:26;;;;;;;25.90;15.32;;;;;;;-7.86;69.57;99364.66;1812975;78;21187;-63
2021/01/15 08:54:54;;;;;;;28.80;15.60;;;;;;;-7.82;68.60;99366.38;1785502;79;21087;-66
2021/01/15 08:57:28;;;;;;;25.43;16.10;;;;;;;-7.82;67.87;99370.17;1812842;78;21477;-67
2021/01/15 08:59:57;;;;;;;26.48;15.43;;;;;;;-7.87;67.77;99370.55;1813105;79;21010;-71
2021/01/15 09:02:26;;;;;;;27.80;15.55;;;;;;;-7.87;68.19;99381.92;1785418;79;21007;-66
2021/01/15 09:04:56;;;;;;;23.62;14.95;;;;;;;-7.87;68.25;99375.61;1803422;79;21243;-67
2021/01/15 09:07:25;;;;;;;29.27;16.50;;;;;;;-7.89;68.18;99374.75;1783810;79;21023;-67
2021/01/15 09:09:53;;;;;;;28.30;16.35;;;;;;;-7.88;68.75;99384.02;1803834;79;21031;-69
2021/01/15 09:12:24;;;;;;;36.83;17.85;;;;;;;-7.87;69.40;99384.45;1804327;79;21030;-67
2021/01/15 09:14:52;;;;;;;28.83;16.40;;;;;;;-7.88;68.76;99384.02;1783849;79;21039;-66
2021/01/15 09:17:25;;;;;;;28.95;16.17;;;;;;;-7.90;68.62;99384.01;1796695;78;22744;-66
2021/01/15 09:19:54;;;;;;;27.27;16.40;;;;;;;-7.88;69.78;99382.34;1774653;79;21698;-68
2021/01/15 09:22:26;;;;;;;28.27;17.27;;;;;;;-7.88;68.93;99377.70;1772422;80;21108;-68
2021/01/15 09:24:55;;;;;;;32.63;17.62;;;;;;;-7.92;68.31;99386.09;1796852;79;21718;-66
2021/01/15 09:27:24;;;;;;;27.93;16.02;;;;;;;-7.94;68.17;99390.29;1805019;79;21035;-67
2021/01/15 09:29:52;;;;;;;25.17;16.20;;;;;;;-7.96;67.91;99389.02;1805298;79;22086;-64
2021/01/15 09:32:21;;;;;;;36.13;20.00;;;;;;;-7.98;67.84;99397.41;1805220;79;21574;-65
2021/01/15 09:34:51;;;;;;;40.20;20.23;;;;;;;-8.04;67.95;99396.13;1804517;79;21635;-68
2021/01/15 09:37:20;;;;;;;29.87;16.97;;;;;;;-8.06;68.48;99392.33;1793402;79;21057;-68
2021/01/15 09:39:50;;;;;;;26.48;15.72;;;;;;;-8.02;68.62;99378.89;1780152;79;20946;-67
2021/01/15 09:42:19;;;;;;;33.18;19.02;;;;;;;-8.01;68.51;99390.69;1791406;79;21251;-68
2021/01/15 09:44:47;;;;;;;27.70;16.37;;;;;;;-8.02;68.21;99386.47;1729019;83;21600;-65
2021/01/15 09:47:15;;;;;;;28.52;17.15;;;;;;;-8.03;68.34;99380.98;1755234;80;21801;-67
2021/01/15 09:49:44;;;;;;;32.65;16.82;;;;;;;-7.99;68.83;99380.14;1756747;81;21674;-66
2021/01/15 09:52:13;;;;;;;28.02;16.27;;;;;;;-7.95;68.71;99385.66;1757495;81;21705;-68
2021/01/15 09:54:41;;;;;;;29.40;18.73;;;;;;;-7.94;68.58;99382.30;1757060;81;21721;-65
2021/01/15 09:57:09;;;;;;;31.12;17.45;;;;;;;-7.91;69.58;99381.05;1757167;81;21575;-64
2021/01/15 09:59:38;;;;;;;40.83;23.62;;;;;;;-7.87;69.99;99381.51;1757518;81;21658;-64
2021/01/15 10:02:06;;;;;;;32.33;17.37;;;;;;;-7.82;69.36;99387.45;1757256;81;21681;-69
2021/01/15 10:04:35;;;;;;;32.03;16.60;;;;;;;-7.80;69.08;99392.09;1757512;81;21097;-67
2021/01/15 10:07:05;;;;;;;34.53;19.50;;;;;;;-7.77;69.41;99384.53;1780978;79;21284;-66
2021/01/15 10:09:35;;;;;;;32.45;16.85;;;;;;;-7.76;69.13;99393.80;1794589;79;21595;-67
2021/01/15 10:12:04;;;;;;;30.65;16.65;;;;;;;-7.72;69.20;99393.41;1795169;78;21740;-68
2021/01/15 10:14:32;;;;;;;26.50;15.48;;;;;;;-7.70;70.09;99391.74;1793965;79;21591;-67
2021/01/15 10:17:01;;;;;;;35.13;19.85;;;;;;;-7.67;69.18;99401.03;1794548;79;21073;-68
2021/01/15 10:19:32;;;;;;;30.85;17.98;;;;;;;-7.72;68.93;99402.26;1790588;79;22026;-66
2021/01/15 10:22:01;;;;;;;32.35;17.87;;;;;;;-7.77;68.94;99396.32;1791593;79;21016;-66
2021/01/15 10:24:31;;;;;;;35.00;20.40;;;;;;;-7.83;68.48;99400.06;1796677;79;21084;-65
2021/01/15 10:27:00;;;;;;;41.37;22.62;;;;;;;-7.87;68.77;99395.41;1795390;79;20961;-70
2021/01/15 10:29:29;;;;;;;46.42;25.70;;;;;;;-7.91;68.19;99404.21;1779095;79;20966;-67
2021/01/15 10:31:57;;;;;;;49.67;26.85;;;;;;;-7.95;68.12;99407.55;1781055;79;21183;-67
2021/01/15 10:34:28;;;;;;;41.75;23.83;;;;;;;-7.97;68.70;99415.53;1778441;79;21230;-68
2021/01/15 10:36:56;;;;;;;40.55;23.60;;;;;;;-7.96;68.50;99419.75;1779210;80;21001;-68
2021/01/15 10:39:25;;;;;;;45.03;25.77;;;;;;;-7.95;68.41;99415.13;1778489;80;21633;-67
2021/01/15 10:41:53;;;;;;;49.40;25.30;;;;;;;-7.94;68.26;99412.61;1779229;80;21733;-66
2021/01/15 10:44:22;;;;;;;42.00;24.40;;;;;;;-7.95;68.02;99411.34;1779282;80;21527;-67
2021/01/15 10:46:52;;;;;;;44.13;25.00;;;;;;;-7.96;67.90;99404.59;1774905;77;21028;-69
2021/01/15 10:49:23;;;;;;;43.68;24.50;;;;;;;-7.95;68.31;99411.34;1762656;80;21383;-67
2021/01/15 10:51:54;;;;;;;42.90;25.08;;;;;;;-7.91;68.74;99410.11;1784802;79;21701;-68
2021/01/15 10:54:24;;;;;;;46.20;24.65;;;;;;;-7.86;68.24;99413.52;1778862;80;21040;-66
2021/01/15 10:56:53;;;;;;;40.52;23.77;;;;;;;-7.81;67.92;99418.20;1778863;80;21257;-65
2021/01/15 10:59:23;;;;;;;44.75;26.00;;;;;;;-7.82;67.67;99410.60;1778568;80;21045;-67
2021/01/15 11:01:51;;;;;;;38.88;23.75;;;;;;;-7.90;67.73;99405.48;1779639;79;20985;-66
2021/01/15 11:04:21;;;;;;;43.13;23.18;;;;;;;-7.91;68.45;99406.73;1776089;78;21006;-66
2021/01/15 11:06:55;;;;;;;46.85;24.02;;;;;;;-7.91;68.25;99408.00;1773077;80;21001;-67
2021/01/15 11:09:24;;;;;;;39.73;22.52;;;;;;;-7.95;67.68;99402.08;1773401;80;21658;-69
2021/01/15 11:11:58;;;;;;;39.00;22.15;;;;;;;-7.96;67.66;99402.91;1773008;79;21056;-66
2021/01/15 11:14:26;;;;;;;42.80;23.67;;;;;;;-7.97;67.44;99397.42;1800957;79;21608;-67
2021/01/15 11:16:55;;;;;;;42.10;22.17;;;;;;;-7.99;67.22;99400.36;1803200;77;21642;-65
2021/01/15 11:19:24;;;;;;;44.65;23.60;;;;;;;-8.04;67.27;99404.97;1809786;79;21552;-69
2021/01/15 11:21:52;;;;;;;46.13;22.67;;;;;;;-8.10;67.24;99406.61;1737783;82;21747;-67
2021/01/15 11:24:20;;;;;;;45.15;23.22;;;;;;;-8.14;68.40;99408.67;1737711;82;21078;-68
2021/01/15 11:26:49;;;;;;;40.63;22.95;;;;;;;-8.11;68.89;99404.07;1762990;81;20993;-64
2021/01/15 11:29:17;;;;;;;38.73;21.95;;;;;;;-8.14;68.91;99412.88;1763468;81;21661;-65
2021/01/15 11:31:45;;;;;;;41.28;22.75;;;;;;;-8.11;69.80;99415.02;1763400;81;21669;-64
2021/01/15 11:34:16;;;;;;;41.02;22.13;;;;;;;-8.07;70.23;99411.69;1753203;81;21208;-66
2021/01/15 11:36:45;;;;;;;47.40;22.70;;;;;;;-8.01;71.35;99413.84;1794935;79;21033;-67
2021/01/15 11:39:13;;;;;;;45.88;23.52;;;;;;;-7.97;69.86;99418.91;1790967;78;21598;-67
2021/01/15 11:41:42;;;;;;;41.00;21.77;;;;;;;-7.97;68.95;99421.84;1724142;80;21094;-70
2021/01/15 11:44:14;;;;;;;41.53;21.05;;;;;;;-8.01;68.77;99423.53;1784435;78;21563;-66